sensor_id;sensor_type;location;lat;lon;timestamp;pressure;altitude;pressure_sealevel;temperature;humidity
50093;BME280;35974;47.752;10.290;2022-07-29T00:02:24;93935.78;;;15.59;96.19
50093;BME280;35974;47.752;10.290;2022-07-29T00:04:51;93912.41;;;15.51;94.82
50093;BME280;35974;47.752;10.290;2022-07-29T00:07:18;93911.03;;;15.60;93.52
50093;BME280;35974;47.752;10.290;2022-07-29T00:09:44;93903.34;;;15.59;93.43
50093;BME280;35974;47.752;10.290;2022-07-29T00:12:21;93911.22;;;15.70;92.45
50093;BME280;35974;47.752;10.290;2022-07-29T00:14:53;93923.06;;;15.56;94.01
50093;BME280;35974;47.752;10.290;2022-07-29T00:17:20;93892.72;;;15.42;94.86
50093;BME280;35974;47.752;10.290;2022-07-29T00:19:46;93884.81;;;15.42;94.62
50093;BME280;35974;47.752;10.290;2022-07-29T00:22:13;93914.59;;;15.54;95.25
50093;BME280;35974;47.752;10.290;2022-07-29T00:24:39;93908.91;;;15.45;95.82
50093;BME280;35974;47.752;10.290;2022-07-29T00:27:06;93885.03;;;15.40;95.06
50093;BME280;35974;47.752;10.290;2022-07-29T00:29:32;93905.84;;;15.65;94.62
50093;BME280;35974;47.752;10.290;2022-07-29T00:32:00;93888.91;;;15.49;94.76
50093;BME280;35974;47.752;10.290;2022-07-29T00:34:27;93881.25;;;15.48;94.56
50093;BME280;35974;47.752;10.290;2022-07-29T00:37:12;93889.94;;;15.60;94.21
50093;BME280;35974;47.752;10.290;2022-07-29T00:39:39;93882.75;;;15.72;93.40
50093;BME280;35974;47.752;10.290;2022-07-29T00:42:05;93873.63;;;15.63;92.48
50093;BME280;35974;47.752;10.290;2022-07-29T00:44:39;93876.03;;;15.77;92.77
50093;BME280;35974;47.752;10.290;2022-07-29T00:47:06;93871.75;;;15.75;91.88
50093;BME280;35974;47.752;10.290;2022-07-29T00:49:34;93877.72;;;15.83;92.11
50093;BME280;35974;47.752;10.290;2022-07-29T00:52:37;93878.28;;;15.85;92.05
50093;BME280;35974;47.752;10.290;2022-07-29T00:55:06;93886.19;;;15.85;92.47
50093;BME280;35974;47.752;10.290;2022-07-29T00:57:35;93879.31;;;15.84;92.62
50093;BME280;35974;47.752;10.290;2022-07-29T01:00:06;93883.00;;;15.83;93.24
50093;BME280;35974;47.752;10.290;2022-07-29T01:02:32;93844.72;;;15.68;93.59
50093;BME280;35974;47.752;10.290;2022-07-29T01:05:00;93838.38;;;15.69;93.43
50093;BME280;35974;47.752;10.290;2022-07-29T01:07:27;93842.97;;;15.74;92.70
50093;BME280;35974;47.752;10.290;2022-07-29T01:09:56;93844.44;;;15.82;92.12
50093;BME280;35974;47.752;10.290;2022-07-29T01:12:24;93859.97;;;15.95;92.50
50093;BME280;35974;47.752;10.290;2022-07-29T01:14:53;93827.13;;;15.74;92.68
50093;BME280;35974;47.752;10.290;2022-07-29T01:17:36;93861.59;;;15.96;92.22
50093;BME280;35974;47.752;10.290;2022-07-29T01:20:07;93855.19;;;15.92;93.13
50093;BME280;35974;47.752;10.290;2022-07-29T01:31:03;93852.84;;;15.79;95.01
50093;BME280;35974;47.752;10.290;2022-07-29T01:33:33;93841.03;;;15.69;95.23
50093;BME280;35974;47.752;10.290;2022-07-29T01:36:24;93814.28;;;15.49;95.05
50093;BME280;35974;47.752;10.290;2022-07-29T01:39:14;93854.44;;;15.80;93.79
50093;BME280;35974;47.752;10.290;2022-07-29T01:42:20;93852.28;;;15.77;92.70
50093;BME280;35974;47.752;10.290;2022-07-29T01:45:13;93839.75;;;15.72;93.98
50093;BME280;35974;47.752;10.290;2022-07-29T01:47:46;93844.72;;;15.68;93.88
50093;BME280;35974;47.752;10.290;2022-07-29T01:50:16;93817.94;;;15.48;93.85
50093;BME280;35974;47.752;10.290;2022-07-29T01:52:55;93843.38;;;15.54;94.26
50093;BME280;35974;47.752;10.290;2022-07-29T01:55:27;93817.91;;;15.31;95.19
50093;BME280;35974;47.752;10.290;2022-07-29T01:57:57;93834.97;;;15.28;95.93
50093;BME280;35974;47.752;10.290;2022-07-29T02:00:25;93824.25;;;15.18;95.71
50093;BME280;35974;47.752;10.290;2022-07-29T02:02:53;93824.91;;;15.25;95.47
50093;BME280;35974;47.752;10.290;2022-07-29T02:05:21;93806.34;;;15.20;95.73
50093;BME280;35974;47.752;10.290;2022-07-29T02:07:50;93816.53;;;15.28;94.87
50093;BME280;35974;47.752;10.290;2022-07-29T02:10:22;93801.28;;;15.30;94.89
50093;BME280;35974;47.752;10.290;2022-07-29T02:12:52;93800.81;;;15.33;95.24
50093;BME280;35974;47.752;10.290;2022-07-29T02:15:22;93790.94;;;15.41;93.50
50093;BME280;35974;47.752;10.290;2022-07-29T02:17:51;93807.41;;;15.48;92.76
50093;BME280;35974;47.752;10.290;2022-07-29T02:20:22;93798.94;;;15.46;92.20
50093;BME280;35974;47.752;10.290;2022-07-29T02:22:52;93801.94;;;15.37;92.12
50093;BME280;35974;47.752;10.290;2022-07-29T02:25:20;93780.00;;;15.20;92.58
50093;BME280;35974;47.752;10.290;2022-07-29T02:27:50;93776.13;;;15.11;93.80
50093;BME280;35974;47.752;10.290;2022-07-29T02:30:18;93772.28;;;15.01;94.63
50093;BME280;35974;47.752;10.290;2022-07-29T02:32:46;93768.59;;;15.02;95.22
50093;BME280;35974;47.752;10.290;2022-07-29T02:35:15;93763.91;;;15.05;95.54
50093;BME280;35974;47.752;10.290;2022-07-29T02:37:44;93767.00;;;15.01;94.42
50093;BME280;35974;47.752;10.290;2022-07-29T02:40:11;93765.41;;;15.00;94.68
50093;BME280;35974;47.752;10.290;2022-07-29T02:42:42;93758.50;;;14.99;94.60
50093;BME280;35974;47.752;10.290;2022-07-29T02:45:10;93759.66;;;15.04;94.27
50093;BME280;35974;47.752;10.290;2022-07-29T02:47:41;93748.47;;;14.96;93.52
50093;BME280;35974;47.752;10.290;2022-07-29T02:50:22;93763.13;;;14.92;93.76
50093;BME280;35974;47.752;10.290;2022-07-29T02:53:01;93780.09;;;14.96;93.60
50093;BME280;35974;47.752;10.290;2022-07-29T02:55:32;93785.34;;;14.96;93.36
50093;BME280;35974;47.752;10.290;2022-07-29T02:58:11;93768.84;;;14.89;92.88
50093;BME280;35974;47.752;10.290;2022-07-29T03:00:40;93770.47;;;14.90;93.14
50093;BME280;35974;47.752;10.290;2022-07-29T03:03:13;93781.66;;;14.97;93.13
50093;BME280;35974;47.752;10.290;2022-07-29T03:05:41;93783.03;;;15.00;92.18
50093;BME280;35974;47.752;10.290;2022-07-29T03:08:10;93767.25;;;14.88;91.96
50093;BME280;35974;47.752;10.290;2022-07-29T03:10:39;93756.06;;;14.81;92.01
50093;BME280;35974;47.752;10.290;2022-07-29T03:13:09;93776.41;;;14.97;92.46
50093;BME280;35974;47.752;10.290;2022-07-29T03:15:36;93785.69;;;14.88;92.34
50093;BME280;35974;47.752;10.290;2022-07-29T03:18:03;93761.56;;;14.68;91.74
50093;BME280;35974;47.752;10.290;2022-07-29T03:20:31;93762.25;;;14.75;91.20
50093;BME280;35974;47.752;10.290;2022-07-29T03:22:58;93765.91;;;14.50;90.60
50093;BME280;35974;47.752;10.290;2022-07-29T03:25:24;93772.78;;;14.39;91.41
50093;BME280;35974;47.752;10.290;2022-07-29T03:27:53;93759.06;;;14.25;91.62
50093;BME280;35974;47.752;10.290;2022-07-29T03:30:19;93772.31;;;14.31;91.61
50093;BME280;35974;47.752;10.290;2022-07-29T03:32:48;93765.94;;;14.26;91.63
50093;BME280;35974;47.752;10.290;2022-07-29T03:35:17;93743.97;;;14.09;91.92
50093;BME280;35974;47.752;10.290;2022-07-29T03:37:44;93783.75;;;14.24;91.99
50093;BME280;35974;47.752;10.290;2022-07-29T03:40:14;93763.16;;;13.98;91.81
50093;BME280;35974;47.752;10.290;2022-07-29T03:42:44;93785.00;;;13.98;91.31
50093;BME280;35974;47.752;10.290;2022-07-29T03:45:14;93766.78;;;13.73;91.42
50093;BME280;35974;47.752;10.290;2022-07-29T03:47:45;93770.88;;;13.69;91.04
50093;BME280;35974;47.752;10.290;2022-07-29T03:50:17;93789.53;;;13.79;91.13
50093;BME280;35974;47.752;10.290;2022-07-29T03:52:46;93761.47;;;13.49;91.17
50093;BME280;35974;47.752;10.290;2022-07-29T03:55:13;93795.56;;;13.68;91.04
50093;BME280;35974;47.752;10.290;2022-07-29T03:57:41;93771.09;;;13.55;91.02
50093;BME280;35974;47.752;10.290;2022-07-29T04:00:09;93795.56;;;13.68;91.21
50093;BME280;35974;47.752;10.290;2022-07-29T04:02:38;93779.00;;;13.37;90.66
50093;BME280;35974;47.752;10.290;2022-07-29T04:05:12;93785.88;;;13.38;91.52
50093;BME280;35974;47.752;10.290;2022-07-29T04:07:39;93797.13;;;13.45;92.64
50093;BME280;35974;47.752;10.290;2022-07-29T04:10:08;93799.69;;;13.64;91.39
50093;BME280;35974;47.752;10.290;2022-07-29T04:12:36;93806.47;;;13.83;90.14
50093;BME280;35974;47.752;10.290;2022-07-29T04:15:05;93771.53;;;13.52;89.58
50093;BME280;35974;47.752;10.290;2022-07-29T04:17:33;93786.13;;;13.48;91.48
50093;BME280;35974;47.752;10.290;2022-07-29T04:19:59;93818.66;;;13.66;90.66
50093;BME280;35974;47.752;10.290;2022-07-29T04:22:26;93795.50;;;13.44;91.64
50093;BME280;35974;47.752;10.290;2022-07-29T04:24:53;93789.47;;;13.55;91.48
50093;BME280;35974;47.752;10.290;2022-07-29T04:27:19;93813.28;;;13.61;91.59
50093;BME280;35974;47.752;10.290;2022-07-29T04:29:46;93812.03;;;13.63;91.95
50093;BME280;35974;47.752;10.290;2022-07-29T04:32:23;93796.47;;;13.62;91.84
50093;BME280;35974;47.752;10.290;2022-07-29T04:34:50;93820.19;;;13.85;92.06
50093;BME280;35974;47.752;10.290;2022-07-29T04:37:17;93823.66;;;13.98;91.48
50093;BME280;35974;47.752;10.290;2022-07-29T04:39:43;93802.94;;;13.89;90.75
50093;BME280;35974;47.752;10.290;2022-07-29T04:42:09;93815.50;;;13.87;92.15
50093;BME280;35974;47.752;10.290;2022-07-29T04:44:36;93802.50;;;13.93;92.09
50093;BME280;35974;47.752;10.290;2022-07-29T04:47:08;93824.22;;;14.00;92.73
50093;BME280;35974;47.752;10.290;2022-07-29T04:49:37;93790.38;;;13.91;92.47
50093;BME280;35974;47.752;10.290;2022-07-29T04:52:04;93780.28;;;13.88;92.85
50093;BME280;35974;47.752;10.290;2022-07-29T04:54:31;93792.22;;;14.03;92.87
50093;BME280;35974;47.752;10.290;2022-07-29T04:56:57;93815.78;;;14.21;92.90
50093;BME280;35974;47.752;10.290;2022-07-29T04:59:24;93810.06;;;14.24;93.36
50093;BME280;35974;47.752;10.290;2022-07-29T05:01:52;93809.41;;;14.17;94.40
50093;BME280;35974;47.752;10.290;2022-07-29T05:04:19;93785.16;;;14.15;94.13
50093;BME280;35974;47.752;10.290;2022-07-29T05:06:46;93806.66;;;14.36;93.96
50093;BME280;35974;47.752;10.290;2022-07-29T05:09:12;93827.75;;;14.59;94.09
50093;BME280;35974;47.752;10.290;2022-07-29T05:11:39;93813.09;;;14.63;94.51
50093;BME280;35974;47.752;10.290;2022-07-29T05:14:05;93792.03;;;14.63;93.98
50093;BME280;35974;47.752;10.290;2022-07-29T05:16:32;93816.72;;;14.86;94.24
50093;BME280;35974;47.752;10.290;2022-07-29T05:18:59;93814.34;;;14.96;94.79
50093;BME280;35974;47.752;10.290;2022-07-29T05:21:26;93793.44;;;15.07;93.79
50093;BME280;35974;47.752;10.290;2022-07-29T05:23:52;93811.16;;;15.23;94.09
50093;BME280;35974;47.752;10.290;2022-07-29T05:26:19;93818.31;;;15.40;94.23
50093;BME280;35974;47.752;10.290;2022-07-29T05:28:45;93809.63;;;15.39;94.09
50093;BME280;35974;47.752;10.290;2022-07-29T05:31:11;93797.91;;;15.47;94.14
50093;BME280;35974;47.752;10.290;2022-07-29T05:33:41;93801.66;;;15.51;94.17
50093;BME280;35974;47.752;10.290;2022-07-29T05:36:07;93801.53;;;15.57;94.01
50093;BME280;35974;47.752;10.290;2022-07-29T05:38:35;93813.25;;;15.79;92.82
50093;BME280;35974;47.752;10.290;2022-07-29T05:41:02;93825.38;;;15.91;93.08
50093;BME280;35974;47.752;10.290;2022-07-29T05:43:29;93798.50;;;15.78;92.31
50093;BME280;35974;47.752;10.290;2022-07-29T05:45:55;93830.09;;;16.06;92.67
50093;BME280;35974;47.752;10.290;2022-07-29T05:48:22;93815.88;;;16.07;92.86
50093;BME280;35974;47.752;10.290;2022-07-29T05:50:49;93823.25;;;16.39;92.42
50093;BME280;35974;47.752;10.290;2022-07-29T05:53:15;93808.66;;;16.54;91.84
50093;BME280;35974;47.752;10.290;2022-07-29T05:55:46;93819.19;;;16.88;91.99
50093;BME280;35974;47.752;10.290;2022-07-29T05:58:13;93806.56;;;16.90;92.41
50093;BME280;35974;47.752;10.290;2022-07-29T06:00:40;93831.88;;;17.30;91.38
50093;BME280;35974;47.752;10.290;2022-07-29T06:03:06;93824.00;;;17.35;88.82
50093;BME280;35974;47.752;10.290;2022-07-29T06:05:33;93809.81;;;17.41;88.26
50093;BME280;35974;47.752;10.290;2022-07-29T06:07:59;93825.84;;;17.56;88.45
50093;BME280;35974;47.752;10.290;2022-07-29T06:10:26;93813.06;;;17.48;84.90
50093;BME280;35974;47.752;10.290;2022-07-29T06:12:53;93839.47;;;17.70;84.32
50093;BME280;35974;47.752;10.290;2022-07-29T06:15:19;93821.06;;;17.53;84.56
50093;BME280;35974;47.752;10.290;2022-07-29T06:17:46;93822.63;;;17.54;84.57
50093;BME280;35974;47.752;10.290;2022-07-29T06:20:27;93821.44;;;17.67;83.14
50093;BME280;35974;47.752;10.290;2022-07-29T06:22:57;93849.22;;;17.65;84.35
50093;BME280;35974;47.752;10.290;2022-07-29T06:25:23;93843.31;;;17.57;84.19
50093;BME280;35974;47.752;10.290;2022-07-29T06:27:50;93820.44;;;17.46;83.34
50093;BME280;35974;47.752;10.290;2022-07-29T06:30:16;93839.88;;;17.35;84.40
50093;BME280;35974;47.752;10.290;2022-07-29T06:32:43;93844.25;;;17.46;84.95
50093;BME280;35974;47.752;10.290;2022-07-29T06:35:09;93849.47;;;17.41;85.44
50093;BME280;35974;47.752;10.290;2022-07-29T06:37:55;93844.88;;;17.53;85.55
50093;BME280;35974;47.752;10.290;2022-07-29T06:40:25;93853.22;;;17.67;85.75
50093;BME280;35974;47.752;10.290;2022-07-29T06:43:10;93849.72;;;17.62;83.54
50093;BME280;35974;47.752;10.290;2022-07-29T06:45:37;93844.28;;;17.51;84.01
50093;BME280;35974;47.752;10.290;2022-07-29T06:48:08;93871.00;;;17.72;84.12
50093;BME280;35974;47.752;10.290;2022-07-29T06:50:34;93864.22;;;17.81;82.49
50093;BME280;35974;47.752;10.290;2022-07-29T06:53:01;93865.31;;;17.85;83.20
50093;BME280;35974;47.752;10.290;2022-07-29T06:55:27;93859.81;;;17.65;84.09
50093;BME280;35974;47.752;10.290;2022-07-29T06:57:53;93847.63;;;17.64;83.87
50093;BME280;35974;47.752;10.290;2022-07-29T07:00:20;93845.47;;;17.61;84.90
50093;BME280;35974;47.752;10.290;2022-07-29T07:02:46;93834.34;;;17.59;85.37
50093;BME280;35974;47.752;10.290;2022-07-29T07:05:13;93853.00;;;17.74;85.51
50093;BME280;35974;47.752;10.290;2022-07-29T07:07:39;93860.38;;;17.89;84.25
50093;BME280;35974;47.752;10.290;2022-07-29T07:10:06;93851.22;;;17.80;83.76
50093;BME280;35974;47.752;10.290;2022-07-29T07:12:33;93847.72;;;17.74;83.37
50093;BME280;35974;47.752;10.290;2022-07-29T07:14:59;93862.75;;;17.90;83.68
50093;BME280;35974;47.752;10.290;2022-07-29T07:17:26;93862.06;;;18.00;83.66
50093;BME280;35974;47.752;10.290;2022-07-29T07:19:52;93883.63;;;18.14;83.68
50093;BME280;35974;47.752;10.290;2022-07-29T07:22:19;93860.75;;;18.03;83.59
50093;BME280;35974;47.752;10.290;2022-07-29T07:24:45;93868.25;;;18.11;82.92
50093;BME280;35974;47.752;10.290;2022-07-29T07:27:12;93871.97;;;18.10;82.89
50093;BME280;35974;47.752;10.290;2022-07-29T07:29:38;93860.22;;;18.01;82.74
50093;BME280;35974;47.752;10.290;2022-07-29T07:32:09;93865.47;;;17.96;83.32
50093;BME280;35974;47.752;10.290;2022-07-29T07:34:36;93861.44;;;17.93;82.83
50093;BME280;35974;47.752;10.290;2022-07-29T07:37:04;93869.16;;;17.95;82.59
50093;BME280;35974;47.752;10.290;2022-07-29T07:39:31;93862.75;;;17.90;82.80
50093;BME280;35974;47.752;10.290;2022-07-29T07:41:57;93886.69;;;18.01;82.59
50093;BME280;35974;47.752;10.290;2022-07-29T07:44:24;93881.34;;;17.96;82.34
50093;BME280;35974;47.752;10.290;2022-07-29T07:46:50;93887.53;;;18.06;82.42
50093;BME280;35974;47.752;10.290;2022-07-29T07:49:17;93889.44;;;18.11;82.03
50093;BME280;35974;47.752;10.290;2022-07-29T07:51:44;93886.72;;;18.06;82.21
50093;BME280;35974;47.752;10.290;2022-07-29T07:54:16;93876.63;;;18.03;82.44
50093;BME280;35974;47.752;10.290;2022-07-29T07:56:46;93893.44;;;18.14;82.60
50093;BME280;35974;47.752;10.290;2022-07-29T07:59:18;93869.75;;;18.02;83.28
50093;BME280;35974;47.752;10.290;2022-07-29T08:01:45;93885.25;;;18.15;83.47
50093;BME280;35974;47.752;10.290;2022-07-29T08:04:21;93855.47;;;18.03;84.31
50093;BME280;35974;47.752;10.290;2022-07-29T08:06:54;93858.25;;;18.18;84.46
50093;BME280;35974;47.752;10.290;2022-07-29T08:09:21;93885.00;;;18.49;84.82
50093;BME280;35974;47.752;10.290;2022-07-29T08:11:56;93891.28;;;18.70;83.85
50093;BME280;35974;47.752;10.290;2022-07-29T08:14:22;93879.41;;;18.83;79.91
50093;BME280;35974;47.752;10.290;2022-07-29T08:16:49;93874.22;;;18.93;79.63
50093;BME280;35974;47.752;10.290;2022-07-29T08:19:16;93852.50;;;18.96;80.43
50093;BME280;35974;47.752;10.290;2022-07-29T08:21:42;93842.97;;;19.00;80.83
50093;BME280;35974;47.752;10.290;2022-07-29T08:24:09;93878.72;;;19.41;79.78
50093;BME280;35974;47.752;10.290;2022-07-29T08:26:53;93887.28;;;19.53;80.38
50093;BME280;35974;47.752;10.290;2022-07-29T08:29:20;93874.03;;;19.58;80.17
50093;BME280;35974;47.752;10.290;2022-07-29T08:31:46;93880.91;;;19.59;79.83
50093;BME280;35974;47.752;10.290;2022-07-29T08:34:14;93892.13;;;19.66;79.89
50093;BME280;35974;47.752;10.290;2022-07-29T08:36:40;93895.88;;;19.75;79.16
50093;BME280;35974;47.752;10.290;2022-07-29T08:39:07;93874.31;;;19.62;79.01
50093;BME280;35974;47.752;10.290;2022-07-29T08:41:33;93886.28;;;19.69;78.83
50093;BME280;35974;47.752;10.290;2022-07-29T08:44:00;93899.66;;;19.90;77.17
50093;BME280;35974;47.752;10.290;2022-07-29T08:46:26;93858.94;;;19.69;76.65
50093;BME280;35974;47.752;10.290;2022-07-29T08:48:53;93891.72;;;20.00;76.42
50093;BME280;35974;47.752;10.290;2022-07-29T08:51:21;93902.38;;;20.21;75.06
50093;BME280;35974;47.752;10.290;2022-07-29T08:53:49;93907.69;;;20.21;76.42
50093;BME280;35974;47.752;10.290;2022-07-29T08:56:17;93887.78;;;20.28;74.96
50093;BME280;35974;47.752;10.290;2022-07-29T08:58:46;93918.88;;;20.38;75.32
50093;BME280;35974;47.752;10.290;2022-07-29T09:01:21;93902.38;;;20.26;75.68
50093;BME280;35974;47.752;10.290;2022-07-29T09:04:05;93891.47;;;20.17;74.96
50093;BME280;35974;47.752;10.290;2022-07-29T09:06:37;93899.72;;;20.16;75.69
50093;BME280;35974;47.752;10.290;2022-07-29T09:09:07;93899.72;;;20.26;76.37
50093;BME280;35974;47.752;10.290;2022-07-29T09:11:34;93911.44;;;20.40;76.86
50093;BME280;35974;47.752;10.290;2022-07-29T09:14:00;93837.03;;;20.40;69.88
50093;BME280;35974;47.752;10.290;2022-07-29T09:16:55;93904.59;;;21.01;69.45
50093;BME280;35974;47.752;10.290;2022-07-29T09:19:25;93921.00;;;21.39;68.87
50093;BME280;35974;47.752;10.290;2022-07-29T09:21:52;93919.13;;;21.55;70.47
50093;BME280;35974;47.752;10.290;2022-07-29T09:24:45;93914.59;;;21.55;68.78
50093;BME280;35974;47.752;10.290;2022-07-29T09:27:23;93927.84;;;21.81;67.24
50093;BME280;35974;47.752;10.290;2022-07-29T09:29:56;93921.59;;;22.01;66.82
50093;BME280;35974;47.752;10.290;2022-07-29T09:32:23;93923.44;;;22.16;67.75
50093;BME280;35974;47.752;10.290;2022-07-29T09:34:50;93829.38;;;21.66;66.85
50093;BME280;35974;47.752;10.290;2022-07-29T09:37:28;93925.63;;;22.48;64.85
50093;BME280;35974;47.752;10.290;2022-07-29T09:39:54;93920.69;;;22.32;67.08
50093;BME280;35974;47.752;10.290;2022-07-29T09:42:29;93918.97;;;22.51;66.55
50093;BME280;35974;47.752;10.290;2022-07-29T09:44:56;93925.81;;;22.62;63.57
50093;BME280;35974;47.752;10.290;2022-07-29T09:47:40;93898.75;;;22.45;65.69
50093;BME280;35974;47.752;10.290;2022-07-29T09:50:07;93908.25;;;22.56;67.57
50093;BME280;35974;47.752;10.290;2022-07-29T09:52:44;93917.78;;;22.67;60.90
50093;BME280;35974;47.752;10.290;2022-07-29T09:55:12;93879.09;;;22.36;62.82
50093;BME280;35974;47.752;10.290;2022-07-29T09:57:44;93910.38;;;22.59;62.86
50093;BME280;35974;47.752;10.290;2022-07-29T10:00:12;93917.63;;;22.88;61.56
50093;BME280;35974;47.752;10.290;2022-07-29T10:02:42;93918.75;;;22.82;62.22
50093;BME280;35974;47.752;10.290;2022-07-29T10:07:49;93875.59;;;22.75;59.40
50093;BME280;35974;47.752;10.290;2022-07-29T10:10:22;93906.31;;;23.01;58.19
50093;BME280;35974;47.752;10.290;2022-07-29T10:12:54;93899.38;;;23.00;56.69
50093;BME280;35974;47.752;10.290;2022-07-29T10:15:25;93913.72;;;23.10;57.86
50093;BME280;35974;47.752;10.290;2022-07-29T10:17:54;93844.59;;;22.79;56.53
50093;BME280;35974;47.752;10.290;2022-07-29T10:20:22;93857.22;;;22.73;57.92
50093;BME280;35974;47.752;10.290;2022-07-29T10:22:51;93768.66;;;22.07;54.19
50093;BME280;35974;47.752;10.290;2022-07-29T10:25:20;93910.56;;;23.08;54.49
50093;BME280;35974;47.752;10.290;2022-07-29T10:27:47;93921.53;;;22.66;55.45
50093;BME280;35974;47.752;10.290;2022-07-29T10:30:15;93902.34;;;22.64;55.08
50093;BME280;35974;47.752;10.290;2022-07-29T10:35:44;93903.28;;;22.44;52.33
50093;BME280;35974;47.752;10.290;2022-07-29T10:44:06;93918.16;;;22.01;55.04
50093;BME280;35974;47.752;10.290;2022-07-29T10:46:43;93830.50;;;21.39;55.49
50093;BME280;35974;47.752;10.290;2022-07-29T10:49:20;93870.31;;;21.75;56.95
50093;BME280;35974;47.752;10.290;2022-07-29T10:51:52;93908.88;;;22.43;55.05
50093;BME280;35974;47.752;10.290;2022-07-29T10:57:18;93911.56;;;22.43;56.34
50093;BME280;35974;47.752;10.290;2022-07-29T10:59:48;93900.69;;;22.34;55.75
50093;BME280;35974;47.752;10.290;2022-07-29T11:05:14;93869.03;;;21.67;55.21
50093;BME280;35974;47.752;10.290;2022-07-29T11:10:45;93887.91;;;21.76;56.67
50093;BME280;35974;47.752;10.290;2022-07-29T11:16:09;93807.13;;;21.31;58.75
50093;BME280;35974;47.752;10.290;2022-07-29T11:19:30;93860.50;;;21.65;58.82
50093;BME280;35974;47.752;10.290;2022-07-29T11:21:36;93904.44;;;21.73;59.53
50093;BME280;35974;47.752;10.290;2022-07-29T11:24:26;93910.75;;;21.87;57.80
50093;BME280;35974;47.752;10.290;2022-07-29T11:32:17;93880.25;;;22.14;58.20
50093;BME280;35974;47.752;10.290;2022-07-29T11:37:45;93817.50;;;21.92;55.71
50093;BME280;35974;47.752;10.290;2022-07-29T11:40:20;93723.56;;;21.32;56.86
50093;BME280;35974;47.752;10.290;2022-07-29T11:42:48;93879.66;;;22.33;57.70
50093;BME280;35974;47.752;10.290;2022-07-29T11:45:46;93813.28;;;21.86;57.87
50093;BME280;35974;47.752;10.290;2022-07-29T11:48:17;93775.63;;;21.58;57.02
50093;BME280;35974;47.752;10.290;2022-07-29T11:51:09;93871.16;;;22.20;55.26
50093;BME280;35974;47.752;10.290;2022-07-29T11:53:39;93875.47;;;22.16;56.36
50093;BME280;35974;47.752;10.290;2022-07-29T11:56:08;93795.28;;;21.68;57.24
50093;BME280;35974;47.752;10.290;2022-07-29T11:58:36;93854.53;;;22.39;55.62
50093;BME280;35974;47.752;10.290;2022-07-29T12:01:04;93863.56;;;22.43;56.59
50093;BME280;35974;47.752;10.290;2022-07-29T12:03:31;93868.97;;;22.33;56.53
50093;BME280;35974;47.752;10.290;2022-07-29T12:06:03;93833.72;;;22.41;55.55
50093;BME280;35974;47.752;10.290;2022-07-29T12:08:42;93834.59;;;22.65;53.48
50093;BME280;35974;47.752;10.290;2022-07-29T12:11:19;93868.94;;;23.01;53.57
50093;BME280;35974;47.752;10.290;2022-07-29T12:13:50;93861.72;;;23.31;51.94
50093;BME280;35974;47.752;10.290;2022-07-29T12:16:18;93851.28;;;23.11;54.18
50093;BME280;35974;47.752;10.290;2022-07-29T12:18:56;93833.00;;;23.23;52.83
50093;BME280;35974;47.752;10.290;2022-07-29T12:21:22;93848.00;;;23.19;53.96
50093;BME280;35974;47.752;10.290;2022-07-29T12:23:55;93854.00;;;23.54;52.81
50093;BME280;35974;47.752;10.290;2022-07-29T12:26:27;93829.25;;;23.48;52.59
50093;BME280;35974;47.752;10.290;2022-07-29T12:28:53;93830.78;;;23.73;52.84
50093;BME280;35974;47.752;10.290;2022-07-29T12:31:21;93844.72;;;24.13;44.88
50093;BME280;35974;47.752;10.290;2022-07-29T12:34:08;93849.13;;;24.04;49.07
50093;BME280;35974;47.752;10.290;2022-07-29T12:36:35;93838.31;;;23.47;49.55
50093;BME280;35974;47.752;10.290;2022-07-29T12:39:03;93810.78;;;23.95;46.65
50093;BME280;35974;47.752;10.290;2022-07-29T12:41:30;93834.59;;;24.10;48.28
50093;BME280;35974;47.752;10.290;2022-07-29T12:43:58;93816.38;;;23.74;44.98
50093;BME280;35974;47.752;10.290;2022-07-29T12:46:24;93835.25;;;24.21;44.59
50093;BME280;35974;47.752;10.290;2022-07-29T12:48:52;93844.69;;;24.52;46.98
50093;BME280;35974;47.752;10.290;2022-07-29T12:54:04;93834.44;;;24.59;47.12
50093;BME280;35974;47.752;10.290;2022-07-29T12:56:33;93834.59;;;24.48;47.43
50093;BME280;35974;47.752;10.290;2022-07-29T12:59:20;93838.75;;;24.55;49.50
50093;BME280;35974;47.752;10.290;2022-07-29T13:01:51;93835.03;;;24.56;52.10
50093;BME280;35974;47.752;10.290;2022-07-29T13:06:59;93840.66;;;24.35;50.60
50093;BME280;35974;47.752;10.290;2022-07-29T13:09:40;93837.31;;;23.67;54.48
50093;BME280;35974;47.752;10.290;2022-07-29T13:12:09;93853.06;;;23.20;57.08
50093;BME280;35974;47.752;10.290;2022-07-29T13:14:44;93855.03;;;23.10;57.07
50093;BME280;35974;47.752;10.290;2022-07-29T13:17:21;93853.91;;;23.16;59.70
50093;BME280;35974;47.752;10.290;2022-07-29T13:20:11;93848.38;;;23.31;58.71
50093;BME280;35974;47.752;10.290;2022-07-29T13:22:42;93853.94;;;23.59;57.71
50093;BME280;35974;47.752;10.290;2022-07-29T13:25:09;93841.25;;;23.94;55.32
50093;BME280;35974;47.752;10.290;2022-07-29T13:27:38;93843.13;;;24.12;55.14
50093;BME280;35974;47.752;10.290;2022-07-29T13:30:07;93821.53;;;24.09;54.03
50093;BME280;35974;47.752;10.290;2022-07-29T13:32:34;93805.84;;;24.02;53.68
50093;BME280;35974;47.752;10.290;2022-07-29T13:35:05;93831.25;;;23.81;55.34
50093;BME280;35974;47.752;10.290;2022-07-29T13:37:33;93835.78;;;23.80;56.15
50093;BME280;35974;47.752;10.290;2022-07-29T13:40:02;93831.25;;;23.81;54.14
50093;BME280;35974;47.752;10.290;2022-07-29T13:42:29;93824.91;;;23.52;54.43
50093;BME280;35974;47.752;10.290;2022-07-29T13:44:56;93814.75;;;23.73;54.93
50093;BME280;35974;47.752;10.290;2022-07-29T13:47:23;93839.56;;;23.79;52.43
50093;BME280;35974;47.752;10.290;2022-07-29T13:50:01;93838.16;;;23.87;52.93
50093;BME280;35974;47.752;10.290;2022-07-29T13:52:28;93828.13;;;23.54;52.54